sensor_id;sensor_type;location;lat;lon;timestamp;pressure;altitude;pressure_sealevel;temperature;humidity
9249;BME280;4660;41.768;26.198;2023-10-31T00:00:42;101084.91;;;14.48;100.00
9249;BME280;4660;41.768;26.198;2023-10-31T00:03:08;101096.03;;;14.27;100.00
9249;BME280;4660;41.768;26.198;2023-10-31T00:05:35;101088.84;;;14.18;100.00
9249;BME280;4660;41.768;26.198;2023-10-31T00:08:00;101095.44;;;14.15;100.00
9249;BME280;4660;41.768;26.198;2023-10-31T00:10:26;101088.41;;;14.04;100.00
9249;BME280;4660;41.768;26.198;2023-10-31T00:12:52;101070.94;;;13.81;100.00
9249;BME280;4660;41.768;26.198;2023-10-31T00:15:17;101095.88;;;13.93;100.00
9249;BME280;4660;41.768;26.198;2023-10-31T00:17:43;101087.25;;;13.89;100.00
9249;BME280;4660;41.768;26.198;2023-10-31T00:20:08;101084.13;;;13.84;100.00
9249;BME280;4660;41.768;26.198;2023-10-31T00:22:34;101076.63;;;13.78;100.00
9249;BME280;4660;41.768;26.198;2023-10-31T00:24:59;101079.97;;;13.90;100.00
9249;BME280;4660;41.768;26.198;2023-10-31T00:27:25;101083.84;;;13.87;100.00
9249;BME280;4660;41.768;26.198;2023-10-31T00:29:50;101079.16;;;13.62;100.00
9249;BME280;4660;41.768;26.198;2023-10-31T00:32:16;101079.25;;;13.70;100.00
9249;BME280;4660;41.768;26.198;2023-10-31T00:34:41;101070.03;;;13.45;100.00
9249;BME280;4660;41.768;26.198;2023-10-31T00:37:07;101058.91;;;13.48;100.00
9249;BME280;4660;41.768;26.198;2023-10-31T00:39:32;101054.16;;;13.60;100.00
9249;BME280;4660;41.768;26.198;2023-10-31T00:41:59;101067.50;;;13.43;100.00
9249;BME280;4660;41.768;26.198;2023-10-31T00:44:24;101068.47;;;13.42;100.00
9249;BME280;4660;41.768;26.198;2023-10-31T00:46:50;101066.75;;;13.24;100.00
9249;BME280;4660;41.768;26.198;2023-10-31T00:49:15;101067.59;;;13.24;100.00
9249;BME280;4660;41.768;26.198;2023-10-31T00:51:41;101076.06;;;13.57;100.00
9249;BME280;4660;41.768;26.198;2023-10-31T00:54:06;101052.97;;;13.44;100.00
9249;BME280;4660;41.768;26.198;2023-10-31T00:56:32;101076.69;;;13.51;100.00
9249;BME280;4660;41.768;26.198;2023-10-31T00:58:57;101061.75;;;13.19;100.00
9249;BME280;4660;41.768;26.198;2023-10-31T01:01:23;101068.63;;;13.41;100.00
9249;BME280;4660;41.768;26.198;2023-10-31T01:03:48;101058.31;;;13.54;100.00
9249;BME280;4660;41.768;26.198;2023-10-31T01:06:14;101040.84;;;13.21;100.00
9249;BME280;4660;41.768;26.198;2023-10-31T01:08:39;101049.97;;;13.20;100.00
9249;BME280;4660;41.768;26.198;2023-10-31T01:11:05;101059.16;;;13.27;100.00
9249;BME280;4660;41.768;26.198;2023-10-31T01:13:30;101053.75;;;13.27;100.00
9249;BME280;4660;41.768;26.198;2023-10-31T01:15:56;101054.22;;;13.23;100.00
9249;BME280;4660;41.768;26.198;2023-10-31T01:18:21;101034.31;;;13.24;100.00
9249;BME280;4660;41.768;26.198;2023-10-31T01:20:47;101045.06;;;12.96;100.00
9249;BME280;4660;41.768;26.198;2023-10-31T01:23:12;101036.13;;;12.95;100.00
9249;BME280;4660;41.768;26.198;2023-10-31T01:25:38;101031.91;;;12.83;100.00
9249;BME280;4660;41.768;26.198;2023-10-31T01:28:03;101035.03;;;12.88;100.00
9249;BME280;4660;41.768;26.198;2023-10-31T01:30:29;101015.59;;;12.75;100.00
9249;BME280;4660;41.768;26.198;2023-10-31T01:32:54;101033.38;;;12.68;100.00
9249;BME280;4660;41.768;26.198;2023-10-31T01:35:21;101018.34;;;12.65;100.00
9249;BME280;4660;41.768;26.198;2023-10-31T01:37:46;101033.84;;;13.01;100.00
9249;BME280;4660;41.768;26.198;2023-10-31T01:40:13;101034.94;;;13.08;100.00
9249;BME280;4660;41.768;26.198;2023-10-31T01:42:38;101041.56;;;13.23;100.00
9249;BME280;4660;41.768;26.198;2023-10-31T01:45:04;101040.66;;;13.32;100.00
9249;BME280;4660;41.768;26.198;2023-10-31T01:47:30;101041.34;;;13.34;100.00
9249;BME280;4660;41.768;26.198;2023-10-31T01:49:55;101032.34;;;13.43;100.00
9249;BME280;4660;41.768;26.198;2023-10-31T01:52:21;101040.81;;;13.31;100.00
9249;BME280;4660;41.768;26.198;2023-10-31T01:54:47;101039.97;;;13.30;100.00
9249;BME280;4660;41.768;26.198;2023-10-31T01:57:13;101045.91;;;13.34;100.00
9249;BME280;4660;41.768;26.198;2023-10-31T01:59:39;101039.44;;;13.17;100.00
9249;BME280;4660;41.768;26.198;2023-10-31T02:02:05;101038.03;;;13.13;100.00
9249;BME280;4660;41.768;26.198;2023-10-31T02:04:30;101039.25;;;13.01;100.00
9249;BME280;4660;41.768;26.198;2023-10-31T02:06:56;101029.50;;;12.80;100.00
9249;BME280;4660;41.768;26.198;2023-10-31T02:09:22;101048.84;;;12.76;100.00
9249;BME280;4660;41.768;26.198;2023-10-31T02:11:50;101025.78;;;12.34;100.00
9249;BME280;4660;41.768;26.198;2023-10-31T02:14:15;101038.94;;;12.57;100.00
9249;BME280;4660;41.768;26.198;2023-10-31T02:16:41;101032.28;;;12.61;100.00
9249;BME280;4660;41.768;26.198;2023-10-31T02:19:07;101042.38;;;12.49;100.00
9249;BME280;4660;41.768;26.198;2023-10-31T02:21:32;101031.78;;;12.38;100.00
9249;BME280;4660;41.768;26.198;2023-10-31T02:23:59;101027.25;;;12.19;100.00
9249;BME280;4660;41.768;26.198;2023-10-31T02:26:32;101039.19;;;12.17;100.00
9249;BME280;4660;41.768;26.198;2023-10-31T02:28:59;101021.28;;;11.77;100.00
9249;BME280;4660;41.768;26.198;2023-10-31T02:31:25;101028.41;;;11.88;100.00
9249;BME280;4660;41.768;26.198;2023-10-31T02:33:51;101034.22;;;11.83;100.00
9249;BME280;4660;41.768;26.198;2023-10-31T02:36:17;101026.94;;;11.64;100.00
9249;BME280;4660;41.768;26.198;2023-10-31T02:38:42;101038.44;;;11.66;100.00
9249;BME280;4660;41.768;26.198;2023-10-31T02:41:08;101032.31;;;11.64;100.00
9249;BME280;4660;41.768;26.198;2023-10-31T02:43:34;101037.31;;;11.59;100.00
9249;BME280;4660;41.768;26.198;2023-10-31T02:45:59;101028.78;;;11.54;100.00
9249;BME280;4660;41.768;26.198;2023-10-31T02:48:25;101026.78;;;11.37;100.00
9249;BME280;4660;41.768;26.198;2023-10-31T02:50:51;101035.56;;;11.48;100.00
9249;BME280;4660;41.768;26.198;2023-10-31T02:53:20;101038.84;;;11.52;100.00
9249;BME280;4660;41.768;26.198;2023-10-31T02:55:46;101037.59;;;11.75;100.00
9249;BME280;4660;41.768;26.198;2023-10-31T02:58:12;101041.84;;;11.68;100.00
9249;BME280;4660;41.768;26.198;2023-10-31T03:00:37;101038.72;;;11.63;100.00
9249;BME280;4660;41.768;26.198;2023-10-31T03:03:03;101038.13;;;11.50;100.00
9249;BME280;4660;41.768;26.198;2023-10-31T03:05:29;101036.22;;;11.21;100.00
9249;BME280;4660;41.768;26.198;2023-10-31T03:07:55;101041.97;;;11.07;100.00
9249;BME280;4660;41.768;26.198;2023-10-31T03:10:20;101054.28;;;11.50;100.00
9249;BME280;4660;41.768;26.198;2023-10-31T03:12:46;101035.44;;;11.50;100.00
9249;BME280;4660;41.768;26.198;2023-10-31T03:15:12;101047.34;;;11.38;100.00
9249;BME280;4660;41.768;26.198;2023-10-31T03:17:38;101047.00;;;11.21;100.00
9249;BME280;4660;41.768;26.198;2023-10-31T03:20:03;101036.66;;;11.26;100.00
9249;BME280;4660;41.768;26.198;2023-10-31T03:22:29;101040.66;;;11.42;100.00
9249;BME280;4660;41.768;26.198;2023-10-31T03:24:55;101039.41;;;11.46;100.00
9249;BME280;4660;41.768;26.198;2023-10-31T03:27:20;101043.09;;;11.45;100.00
9249;BME280;4660;41.768;26.198;2023-10-31T03:29:46;101037.72;;;11.64;100.00
9249;BME280;4660;41.768;26.198;2023-10-31T03:32:12;101035.16;;;11.53;100.00
9249;BME280;4660;41.768;26.198;2023-10-31T03:34:38;101044.66;;;11.38;100.00
9249;BME280;4660;41.768;26.198;2023-10-31T03:37:04;101020.97;;;11.41;100.00
9249;BME280;4660;41.768;26.198;2023-10-31T03:39:30;101027.78;;;11.55;100.00
9249;BME280;4660;41.768;26.198;2023-10-31T03:41:55;101032.31;;;11.64;100.00
9249;BME280;4660;41.768;26.198;2023-10-31T03:44:21;101028.22;;;11.70;100.00
9249;BME280;4660;41.768;26.198;2023-10-31T03:46:46;101033.75;;;11.68;100.00
9249;BME280;4660;41.768;26.198;2023-10-31T03:49:12;101022.28;;;11.76;100.00
9249;BME280;4660;41.768;26.198;2023-10-31T03:51:37;101022.00;;;11.79;100.00
9249;BME280;4660;41.768;26.198;2023-10-31T03:54:03;101030.09;;;11.79;100.00
9249;BME280;4660;41.768;26.198;2023-10-31T03:56:28;101020.72;;;11.73;100.00
9249;BME280;4660;41.768;26.198;2023-10-31T03:58:54;101028.97;;;11.81;100.00
9249;BME280;4660;41.768;26.198;2023-10-31T04:01:19;101020.72;;;11.73;100.00
9249;BME280;4660;41.768;26.198;2023-10-31T04:03:45;101028.06;;;11.71;100.00
9249;BME280;4660;41.768;26.198;2023-10-31T04:06:11;101022.97;;;11.68;100.00
9249;BME280;4660;41.768;26.198;2023-10-31T04:08:37;101028.66;;;11.65;100.00
9249;BME280;4660;41.768;26.198;2023-10-31T04:11:03;101020.16;;;11.60;100.00
9249;BME280;4660;41.768;26.198;2023-10-31T04:13:28;101022.84;;;11.60;100.00
9249;BME280;4660;41.768;26.198;2023-10-31T04:15:54;101022.97;;;11.68;100.00
9249;BME280;4660;41.768;26.198;2023-10-31T04:18:19;101012.19;;;11.68;100.00
9249;BME280;4660;41.768;26.198;2023-10-31T04:20:45;101024.81;;;11.77;100.00
9249;BME280;4660;41.768;26.198;2023-10-31T04:23:10;101030.69;;;11.82;100.00
9249;BME280;4660;41.768;26.198;2023-10-31T04:25:37;101025.69;;;11.68;100.00
9249;BME280;4660;41.768;26.198;2023-10-31T04:28:03;101031.63;;;11.62;100.00
9249;BME280;4660;41.768;26.198;2023-10-31T04:30:29;101037.50;;;11.17;100.00
9249;BME280;4660;41.768;26.198;2023-10-31T04:32:55;101029.97;;;11.21;100.00
9249;BME280;4660;41.768;26.198;2023-10-31T04:35:20;101033.97;;;11.17;100.00
9249;BME280;4660;41.768;26.198;2023-10-31T04:37:46;101032.25;;;11.16;100.00
9249;BME280;4660;41.768;26.198;2023-10-31T04:40:12;101021.22;;;11.28;100.00
9249;BME280;4660;41.768;26.198;2023-10-31T04:42:41;101033.72;;;11.29;100.00
9249;BME280;4660;41.768;26.198;2023-10-31T04:45:07;101034.31;;;11.52;100.00
9249;BME280;4660;41.768;26.198;2023-10-31T04:47:33;101024.38;;;11.43;100.00
9249;BME280;4660;41.768;26.198;2023-10-31T04:49:59;101033.16;;;11.45;100.00
9249;BME280;4660;41.768;26.198;2023-10-31T04:52:24;101037.44;;;11.67;100.00
9249;BME280;4660;41.768;26.198;2023-10-31T04:54:51;101027.53;;;11.58;100.00
9249;BME280;4660;41.768;26.198;2023-10-31T04:57:17;101040.00;;;11.59;100.00
9249;BME280;4660;41.768;26.198;2023-10-31T04:59:42;101036.53;;;11.28;100.00
9249;BME280;4660;41.768;26.198;2023-10-31T05:02:08;101041.41;;;11.44;100.00
9249;BME280;4660;41.768;26.198;2023-10-31T05:04:33;101053.31;;;11.51;100.00
9249;BME280;4660;41.768;26.198;2023-10-31T05:06:59;101031.38;;;11.65;100.00
9249;BME280;4660;41.768;26.198;2023-10-31T05:09:24;101056.78;;;11.92;100.00
9249;BME280;4660;41.768;26.198;2023-10-31T05:11:50;101052.81;;;11.96;100.00
9249;BME280;4660;41.768;26.198;2023-10-31T05:14:16;101038.06;;;11.90;100.00
9249;BME280;4660;41.768;26.198;2023-10-31T05:16:45;101055.09;;;11.81;100.00
9249;BME280;4660;41.768;26.198;2023-10-31T05:19:10;101058.78;;;11.90;100.00
9249;BME280;4660;41.768;26.198;2023-10-31T05:21:36;101050.78;;;11.78;100.00
9249;BME280;4660;41.768;26.198;2023-10-31T05:24:02;101073.66;;;12.13;100.00
9249;BME280;4660;41.768;26.198;2023-10-31T05:26:28;101067.28;;;12.14;100.00
9249;BME280;4660;41.768;26.198;2023-10-31T05:28:55;101064.00;;;12.20;100.00
9249;BME280;4660;41.768;26.198;2023-10-31T05:31:22;101064.75;;;12.22;100.00
9249;BME280;4660;41.768;26.198;2023-10-31T05:33:48;101049.13;;;12.06;100.00
9249;BME280;4660;41.768;26.198;2023-10-31T05:36:24;101067.53;;;12.40;100.00
9249;BME280;4660;41.768;26.198;2023-10-31T05:38:50;101066.00;;;12.37;100.00
9249;BME280;4660;41.768;26.198;2023-10-31T05:41:15;101071.25;;;12.39;100.00
9249;BME280;4660;41.768;26.198;2023-10-31T05:43:41;101071.25;;;12.29;100.00
9249;BME280;4660;41.768;26.198;2023-10-31T05:46:07;101062.03;;;12.22;100.00
9249;BME280;4660;41.768;26.198;2023-10-31T05:48:44;101047.97;;;11.99;100.00
9249;BME280;4660;41.768;26.198;2023-10-31T05:51:17;101058.50;;;12.12;100.00
9249;BME280;4660;41.768;26.198;2023-10-31T05:53:46;101049.97;;;12.07;100.00
9249;BME280;4660;41.768;26.198;2023-10-31T05:56:13;101077.78;;;12.17;100.00
9249;BME280;4660;41.768;26.198;2023-10-31T05:58:40;101069.84;;;12.25;100.00
9249;BME280;4660;41.768;26.198;2023-10-31T06:01:06;101079.59;;;12.55;100.00
9249;BME280;4660;41.768;26.198;2023-10-31T06:03:33;101089.53;;;12.64;100.00
9249;BME280;4660;41.768;26.198;2023-10-31T06:05:59;101076.03;;;12.64;100.00
9249;BME280;4660;41.768;26.198;2023-10-31T06:08:24;101087.88;;;12.91;100.00
9249;BME280;4660;41.768;26.198;2023-10-31T06:10:53;101096.09;;;12.99;100.00
9249;BME280;4660;41.768;26.198;2023-10-31T06:13:19;101093.19;;;13.20;100.00
9249;BME280;4660;41.768;26.198;2023-10-31T06:15:45;101095.91;;;13.10;100.00
9249;BME280;4660;41.768;26.198;2023-10-31T06:18:10;101094.38;;;13.08;100.00
9249;BME280;4660;41.768;26.198;2023-10-31T06:20:36;101095.47;;;13.15;100.00
9249;BME280;4660;41.768;26.198;2023-10-31T06:23:02;101094.00;;;13.30;100.00
9249;BME280;4660;41.768;26.198;2023-10-31T06:25:30;101087.50;;;13.23;100.00
9249;BME280;4660;41.768;26.198;2023-10-31T06:27:56;101085.91;;;13.30;100.00
9249;BME280;4660;41.768;26.198;2023-10-31T06:30:21;101088.47;;;13.49;100.00
9249;BME280;4660;41.768;26.198;2023-10-31T06:32:47;101099.25;;;13.59;100.00
9249;BME280;4660;41.768;26.198;2023-10-31T06:35:12;101089.97;;;13.62;100.00
9249;BME280;4660;41.768;26.198;2023-10-31T06:37:38;101045.63;;;13.37;100.00
9249;BME280;4660;41.768;26.198;2023-10-31T06:40:04;101073.31;;;13.66;100.00
9249;BME280;4660;41.768;26.198;2023-10-31T06:42:30;101102.91;;;13.86;100.00
9249;BME280;4660;41.768;26.198;2023-10-31T06:44:56;101083.03;;;13.77;100.00
9249;BME280;4660;41.768;26.198;2023-10-31T06:47:21;101100.16;;;13.95;100.00
9249;BME280;4660;41.768;26.198;2023-10-31T06:49:46;101100.00;;;14.15;100.00
9249;BME280;4660;41.768;26.198;2023-10-31T06:52:12;101098.91;;;14.25;100.00
9249;BME280;4660;41.768;26.198;2023-10-31T06:54:37;101093.88;;;14.30;100.00
9249;BME280;4660;41.768;26.198;2023-10-31T06:57:03;101079.19;;;14.33;100.00
9249;BME280;4660;41.768;26.198;2023-10-31T06:59:29;101084.28;;;14.36;100.00
9249;BME280;4660;41.768;26.198;2023-10-31T07:01:55;101079.22;;;14.41;100.00
9249;BME280;4660;41.768;26.198;2023-10-31T07:04:20;101083.63;;;14.42;100.00
9249;BME280;4660;41.768;26.198;2023-10-31T07:06:46;101086.31;;;14.52;100.00
9249;BME280;4660;41.768;26.198;2023-10-31T07:09:11;101093.50;;;14.43;100.00
9249;BME280;4660;41.768;26.198;2023-10-31T07:11:37;101091.38;;;14.55;100.00
9249;BME280;4660;41.768;26.198;2023-10-31T07:14:03;101091.38;;;14.73;100.00
9249;BME280;4660;41.768;26.198;2023-10-31T07:16:29;101086.06;;;14.71;100.00
9249;BME280;4660;41.768;26.198;2023-10-31T07:18:55;101089.38;;;14.83;100.00
9249;BME280;4660;41.768;26.198;2023-10-31T07:21:20;101088.03;;;14.79;100.00
9249;BME280;4660;41.768;26.198;2023-10-31T07:23:46;101087.44;;;14.93;100.00
9249;BME280;4660;41.768;26.198;2023-10-31T07:26:11;101072.16;;;14.92;100.00
9249;BME280;4660;41.768;26.198;2023-10-31T07:28:37;101093.81;;;15.18;100.00
9249;BME280;4660;41.768;26.198;2023-10-31T07:31:03;101088.25;;;15.28;100.00
9249;BME280;4660;41.768;26.198;2023-10-31T07:33:30;101073.09;;;15.43;100.00
9249;BME280;4660;41.768;26.198;2023-10-31T07:35:55;101079.97;;;15.72;100.00
9249;BME280;4660;41.768;26.198;2023-10-31T07:38:21;101064.56;;;15.72;100.00
9249;BME280;4660;41.768;26.198;2023-10-31T07:40:47;101075.44;;;15.88;100.00
9249;BME280;4660;41.768;26.198;2023-10-31T07:43:15;101072.72;;;16.05;100.00
9249;BME280;4660;41.768;26.198;2023-10-31T07:45:41;101062.06;;;16.03;100.00
9249;BME280;4660;41.768;26.198;2023-10-31T07:48:08;101052.88;;;16.12;100.00
9249;BME280;4660;41.768;26.198;2023-10-31T07:50:38;101063.75;;;16.29;100.00
9249;BME280;4660;41.768;26.198;2023-10-31T07:53:03;101065.78;;;16.43;100.00
9249;BME280;4660;41.768;26.198;2023-10-31T07:55:29;101056.44;;;16.45;100.00
9249;BME280;4660;41.768;26.198;2023-10-31T07:57:54;101061.00;;;16.61;100.00
9249;BME280;4660;41.768;26.198;2023-10-31T08:00:20;101063.22;;;16.66;100.00
9249;BME280;4660;41.768;26.198;2023-10-31T08:02:48;101058.97;;;16.63;100.00
9249;BME280;4660;41.768;26.198;2023-10-31T08:05:15;101007.38;;;16.55;100.00
9249;BME280;4660;41.768;26.198;2023-10-31T08:07:41;101059.13;;;16.86;100.00
9249;BME280;4660;41.768;26.198;2023-10-31T08:10:07;101050.78;;;16.96;100.00
9249;BME280;4660;41.768;26.198;2023-10-31T08:12:32;101060.41;;;17.06;100.00
9249;BME280;4660;41.768;26.198;2023-10-31T08:14:58;101029.81;;;17.13;100.00
9249;BME280;4660;41.768;26.198;2023-10-31T08:17:24;101068.25;;;17.41;100.00
9249;BME280;4660;41.768;26.198;2023-10-31T08:19:49;101048.56;;;17.39;100.00
9249;BME280;4660;41.768;26.198;2023-10-31T08:22:16;101062.63;;;17.50;100.00
9249;BME280;4660;41.768;26.198;2023-10-31T08:24:43;101039.31;;;17.48;100.00
9249;BME280;4660;41.768;26.198;2023-10-31T08:27:09;101059.00;;;17.58;100.00
9249;BME280;4660;41.768;26.198;2023-10-31T08:29:35;101033.53;;;17.51;100.00
9249;BME280;4660;41.768;26.198;2023-10-31T08:32:01;101060.25;;;17.78;100.00
9249;BME280;4660;41.768;26.198;2023-10-31T08:34:29;101042.59;;;17.74;100.00
9249;BME280;4660;41.768;26.198;2023-10-31T08:36:55;101040.66;;;17.83;100.00
9249;BME280;4660;41.768;26.198;2023-10-31T08:39:21;101042.16;;;17.85;100.00
9249;BME280;4660;41.768;26.198;2023-10-31T08:44:17;101045.16;;;18.22;100.00
9249;BME280;4660;41.768;26.198;2023-10-31T08:46:42;101047.84;;;18.45;100.00
9249;BME280;4660;41.768;26.198;2023-10-31T08:49:08;101033.09;;;18.54;100.00
9249;BME280;4660;41.768;26.198;2023-10-31T08:51:33;101018.94;;;18.58;100.00
9249;BME280;4660;41.768;26.198;2023-10-31T08:53:59;101020.00;;;18.72;100.00
9249;BME280;4660;41.768;26.198;2023-10-31T08:56:45;101019.63;;;18.75;100.00
9249;BME280;4660;41.768;26.198;2023-10-31T08:59:10;101001.94;;;19.15;100.00
9249;BME280;4660;41.768;26.198;2023-10-31T09:01:36;101013.25;;;19.34;100.00
9249;BME280;4660;41.768;26.198;2023-10-31T09:04:02;101011.94;;;19.44;100.00
9249;BME280;4660;41.768;26.198;2023-10-31T09:06:27;101007.13;;;19.46;100.00
9249;BME280;4660;41.768;26.198;2023-10-31T09:08:53;101008.69;;;19.56;100.00
9249;BME280;4660;41.768;26.198;2023-10-31T09:11:19;100999.34;;;19.43;100.00
9249;BME280;4660;41.768;26.198;2023-10-31T09:13:45;100998.34;;;19.66;100.00
9249;BME280;4660;41.768;26.198;2023-10-31T09:16:11;100987.81;;;19.84;100.00
9249;BME280;4660;41.768;26.198;2023-10-31T09:18:44;100953.94;;;19.57;100.00
9249;BME280;4660;41.768;26.198;2023-10-31T09:21:10;100974.63;;;19.66;100.00
9249;BME280;4660;41.768;26.198;2023-10-31T09:23:36;100967.97;;;19.75;100.00
9249;BME280;4660;41.768;26.198;2023-10-31T09:26:03;100964.69;;;19.80;100.00
9249;BME280;4660;41.768;26.198;2023-10-31T09:31:04;100972.97;;;20.15;100.00
9249;BME280;4660;41.768;26.198;2023-10-31T09:36:11;100891.13;;;19.78;100.00
9249;BME280;4660;41.768;26.198;2023-10-31T09:38:44;100917.91;;;20.18;100.00
9249;BME280;4660;41.768;26.198;2023-10-31T09:41:14;100943.38;;;20.46;100.00
9249;BME280;4660;41.768;26.198;2023-10-31T09:43:40;100867.53;;;20.27;100.00
9249;BME280;4660;41.768;26.198;2023-10-31T09:46:08;100860.56;;;20.18;100.00
9249;BME280;4660;41.768;26.198;2023-10-31T09:48:35;100838.44;;;20.13;100.00
9249;BME280;4660;41.768;26.198;2023-10-31T09:51:02;100816.22;;;20.16;100.00
9249;BME280;4660;41.768;26.198;2023-10-31T09:53:29;100846.91;;;20.52;100.00
9249;BME280;4660;41.768;26.198;2023-10-31T09:55:58;100870.78;;;20.85;100.00
9249;BME280;4660;41.768;26.198;2023-10-31T09:58:23;100907.50;;;21.10;100.00
9249;BME280;4660;41.768;26.198;2023-10-31T10:00:49;100897.81;;;21.14;100.00
9249;BME280;4660;41.768;26.198;2023-10-31T10:03:16;100878.88;;;21.20;100.00
9249;BME280;4660;41.768;26.198;2023-10-31T10:05:43;100865.63;;;21.16;100.00
9249;BME280;4660;41.768;26.198;2023-10-31T10:08:09;100866.34;;;21.38;100.00
9249;BME280;4660;41.768;26.198;2023-10-31T10:10:36;100833.88;;;21.22;100.00
9249;BME280;4660;41.768;26.198;2023-10-31T10:13:02;100858.13;;;21.38;100.00
9249;BME280;4660;41.768;26.198;2023-10-31T10:15:28;100852.00;;;21.43;100.00
9249;BME280;4660;41.768;26.198;2023-10-31T10:17:54;100849.28;;;21.63;100.00
9249;BME280;4660;41.768;26.198;2023-10-31T10:20:20;100829.28;;;21.62;100.00
9249;BME280;4660;41.768;26.198;2023-10-31T10:22:46;100841.28;;;21.81;100.00
9249;BME280;4660;41.768;26.198;2023-10-31T10:25:17;100825.25;;;21.71;100.00
9249;BME280;4660;41.768;26.198;2023-10-31T10:27:45;100830.72;;;21.91;100.00
9249;BME280;4660;41.768;26.198;2023-10-31T10:30:12;100819.53;;;21.93;100.00
9249;BME280;4660;41.768;26.198;2023-10-31T10:32:38;100832.84;;;22.09;100.00
9249;BME280;4660;41.768;26.198;2023-10-31T10:35:04;100826.03;;;22.32;100.00
9249;BME280;4660;41.768;26.198;2023-10-31T10:37:30;100814.00;;;22.33;100.00
9249;BME280;4660;41.768;26.198;2023-10-31T10:39:56;100815.44;;;22.42;100.00
9249;BME280;4660;41.768;26.198;2023-10-31T10:42:31;100811.88;;;22.35;100.00
9249;BME280;4660;41.768;26.198;2023-10-31T10:45:04;100808.22;;;22.54;100.00
9249;BME280;4660;41.768;26.198;2023-10-31T10:47:34;100815.13;;;22.63;100.00
9249;BME280;4660;41.768;26.198;2023-10-31T10:50:06;100809.88;;;22.62;100.00
9249;BME280;4660;41.768;26.198;2023-10-31T10:55:45;100803.28;;;22.69;100.00
9249;BME280;4660;41.768;26.198;2023-10-31T10:58:22;100784.25;;;22.81;100.00
9249;BME280;4660;41.768;26.198;2023-10-31T11:00:49;100781.50;;;22.81;100.00
9249;BME280;4660;41.768;26.198;2023-10-31T11:03:16;100778.75;;;22.88;100.00
9249;BME280;4660;41.768;26.198;2023-10-31T11:05:42;100763.94;;;22.95;100.00
9249;BME280;4660;41.768;26.198;2023-10-31T11:08:08;100775.09;;;23.00;100.00
9249;BME280;4660;41.768;26.198;2023-10-31T11:10:35;100765.19;;;22.93;100.00
9249;BME280;4660;41.768;26.198;2023-10-31T11:13:01;100702.03;;;22.68;100.00
9249;BME280;4660;41.768;26.198;2023-10-31T11:15:27;100739.19;;;23.02;100.00
9249;BME280;4660;41.768;26.198;2023-10-31T11:17:55;100712.97;;;22.74;100.00
9249;BME280;4660;41.768;26.198;2023-10-31T11:20:23;100743.56;;;23.10;100.00
9249;BME280;4660;41.768;26.198;2023-10-31T11:22:55;100752.25;;;23.31;100.00
9249;BME280;4660;41.768;26.198;2023-10-31T11:25:25;100719.59;;;23.23;100.00
9249;BME280;4660;41.768;26.198;2023-10-31T11:27:52;100741.66;;;23.35;100.00
9249;BME280;4660;41.768;26.198;2023-10-31T11:30:33;100738.25;;;23.40;100.00
9249;BME280;4660;41.768;26.198;2023-10-31T11:32:59;100700.94;;;23.32;100.00
9249;BME280;4660;41.768;26.198;2023-10-31T11:35:29;100720.41;;;23.49;100.00
9249;BME280;4660;41.768;26.198;2023-10-31T11:38:02;100720.47;;;23.85;100.00
9249;BME280;4660;41.768;26.198;2023-10-31T11:40:29;100715.44;;;24.01;100.00
9249;BME280;4660;41.768;26.198;2023-10-31T11:42:59;100716.34;;;24.13;100.00
9249;BME280;4660;41.768;26.198;2023-10-31T11:48:03;100701.47;;;23.84;100.00
9249;BME280;4660;41.768;26.198;2023-10-31T11:50:32;100695.59;;;23.80;100.00
9249;BME280;4660;41.768;26.198;2023-10-31T11:53:08;100697.88;;;23.83;100.00
9249;BME280;4660;41.768;26.198;2023-10-31T11:55:40;100690.94;;;23.81;100.00
9249;BME280;4660;41.768;26.198;2023-10-31T11:58:22;100681.47;;;23.95;100.00
9249;BME280;4660;41.768;26.198;2023-10-31T12:00:51;100641.25;;;24.01;100.00
9249;BME280;4660;41.768;26.198;2023-10-31T12:03:19;100666.41;;;24.16;100.00
9249;BME280;4660;41.768;26.198;2023-10-31T12:05:56;100604.75;;;23.94;100.00
9249;BME280;4660;41.768;26.198;2023-10-31T12:08:27;100673.69;;;24.40;100.00
9249;BME280;4660;41.768;26.198;2023-10-31T12:11:18;100622.78;;;24.20;100.00
9249;BME280;4660;41.768;26.198;2023-10-31T12:14:01;100583.81;;;23.93;100.00
9249;BME280;4660;41.768;26.198;2023-10-31T12:16:30;100619.28;;;24.42;100.00
9249;BME280;4660;41.768;26.198;2023-10-31T12:19:05;100647.22;;;24.58;100.00
9249;BME280;4660;41.768;26.198;2023-10-31T12:21:44;100620.19;;;24.55;100.00
9249;BME280;4660;41.768;26.198;2023-10-31T12:24:18;100638.63;;;24.66;100.00
9249;BME280;4660;41.768;26.198;2023-10-31T12:26:45;100618.28;;;24.67;100.00
9249;BME280;4660;41.768;26.198;2023-10-31T12:29:13;100594.47;;;24.61;100.00
9249;BME280;4660;41.768;26.198;2023-10-31T12:31:40;100588.84;;;24.44;100.00
9249;BME280;4660;41.768;26.198;2023-10-31T12:34:07;100615.66;;;24.60;100.00
9249;BME280;4660;41.768;26.198;2023-10-31T12:36:35;100615.25;;;24.45;100.00
9249;BME280;4660;41.768;26.198;2023-10-31T12:39:01;100591.91;;;24.36;100.00
9249;BME280;4660;41.768;26.198;2023-10-31T12:41:29;100589.88;;;24.43;100.00
9249;BME280;4660;41.768;26.198;2023-10-31T12:43:55;100598.66;;;24.52;100.00
9249;BME280;4660;41.768;26.198;2023-10-31T12:46:28;100590.41;;;24.52;100.00
9249;BME280;4660;41.768;26.198;2023-10-31T12:48:57;100590.06;;;24.60;100.00
9249;BME280;4660;41.768;26.198;2023-10-31T12:51:23;100586.25;;;24.73;100.00
9249;BME280;4660;41.768;26.198;2023-10-31T12:53:50;100585.63;;;24.70;100.00
9249;BME280;4660;41.768;26.198;2023-10-31T12:59:03;100564.94;;;24.91;100.00
9249;BME280;4660;41.768;26.198;2023-10-31T13:01:29;100558.59;;;24.91;100.00
9249;BME280;4660;41.768;26.198;2023-10-31T13:03:55;100572.38;;;25.03;100.00